Cowlic, Arizona
Current Conditions -  °F | °C
As of 10:55 AM on Monday 20 Oct 2014 (Local Time) from KCGZ Reporting Station
Clear Clear  
Wind Chill: 79°   Ceiling: Unl
Heat Index: 79°   Visibility: 10mi
Dew Point: 48°   Wind: 7mph
Humidity: 34%   Direction: 60°ENE
Pressure: 29.93"   Gusts: NA
Location:  32.0925°N, 112.129°W
Report Text: KCGZ 201755Z AUTO 06006KT 10SM CLR 26/09 A2993 RMK AO1 10260 20180 54000
Loading
Personal Weather Stations






























Interactive Weather Map
Tropical Storm Tracking
New forecast layout! Learn more

10-Day Weather Forecast

Advertisements
Track Severe Weather on mobile